Time;durP1;ratioP1;P1;durP2;ratioP2;P2;SDS_P1;SDS_P2;PMS_P1;PMS_P2;Temp;Humidity;BMP_temperature;BMP_pressure;BME280_temperature;BME280_humidity;BME280_pressure;Samples;Min_cycle;Max_cycle;Signal;HPM_P1;HPM_P2
2023/08/18 00:00:29;;;;;;;3.20;1.80;;;27.10;69.50;;;;;;7019042;28;20044;-75
2023/08/18 00:03:52;;;;;;;3.67;1.80;;;27.10;69.50;;;;;;7018444;28;20470;-76
2023/08/18 00:07:14;;;;;;;3.33;1.90;;;27.10;69.60;;;;;;7016917;28;20056;-77
2023/08/18 00:10:36;;;;;;;3.42;1.80;;;27.10;69.60;;;;;;7016695;28;20044;-75
2023/08/18 00:14:03;;;;;;;3.85;1.80;;;27.00;69.60;;;;;;7017667;28;20082;-75
2023/08/18 00:17:25;;;;;;;3.10;1.70;;;27.10;69.60;;;;;;7016383;28;20094;-75
2023/08/18 00:20:50;;;;;;;3.47;1.77;;;27.10;69.70;;;;;;7016683;28;20079;-77
2023/08/18 00:24:12;;;;;;;3.55;1.65;;;27.00;69.60;;;;;;7017994;28;20085;-75
2023/08/18 00:27:36;;;;;;;3.47;1.80;;;27.00;69.60;;;;;;7015962;28;20056;-75
2023/08/18 00:31:00;;;;;;;2.75;1.45;;;27.00;69.60;;;;;;7015905;28;20105;-75
2023/08/18 00:34:22;;;;;;;3.22;1.50;;;27.00;69.60;;;;;;7015809;28;20047;-75
2023/08/18 00:37:48;;;;;;;3.53;1.85;;;27.00;69.60;;;;;;7017552;28;20068;-75
2023/08/18 00:41:10;;;;;;;4.50;1.95;;;27.00;69.60;;;;;;7016236;28;20669;-75
2023/08/18 00:44:33;;;;;;;3.60;1.85;;;27.00;69.70;;;;;;7015517;28;20086;-76
2023/08/18 00:47:57;;;;;;;2.95;1.45;;;27.00;69.70;;;;;;7015253;28;20101;-76
2023/08/18 00:51:21;;;;;;;3.55;2.00;;;27.00;69.60;;;;;;6981148;28;20049;-75
2023/08/18 00:54:44;;;;;;;3.78;2.05;;;27.00;69.60;;;;;;6997330;28;20041;-75
2023/08/18 00:58:07;;;;;;;3.78;2.10;;;27.00;69.60;;;;;;6998280;28;20127;-75
2023/08/18 01:01:30;;;;;;;3.40;1.77;;;27.00;69.60;;;;;;6998086;28;20048;-75
2023/08/18 01:04:54;;;;;;;4.53;1.80;;;27.00;69.70;;;;;;6997708;28;20119;-76
2023/08/18 01:08:16;;;;;;;4.70;1.65;;;27.00;69.70;;;;;;6997723;28;20047;-77
2023/08/18 01:11:52;;;;;;;3.33;1.67;;;27.00;69.70;;;;;;6996179;28;20101;-76
2023/08/18 01:15:19;;;;;;;4.03;1.98;;;27.00;69.70;;;;;;6996057;28;20395;-76
2023/08/18 01:18:43;;;;;;;3.10;1.60;;;27.00;69.60;;;;;;6995717;28;20057;-77
2023/08/18 01:22:11;;;;;;;3.17;1.75;;;27.00;69.70;;;;;;6997427;28;20033;-76
2023/08/18 01:25:35;;;;;;;3.70;1.98;;;27.00;69.70;;;;;;6997911;28;20074;-77
2023/08/18 01:29:13;;;;;;;3.60;2.20;;;27.00;69.70;;;;;;6997616;28;20087;-77
2023/08/18 01:32:45;;;;;;;3.08;1.73;;;27.00;69.70;;;;;;6997485;28;20502;-76
2023/08/18 01:36:12;;;;;;;2.83;1.45;;;27.00;69.70;;;;;;6996869;28;20097;-76
2023/08/18 01:39:35;;;;;;;3.90;1.85;;;26.90;69.60;;;;;;6996486;28;20053;-76
2023/08/18 01:42:59;;;;;;;3.38;1.85;;;27.00;69.70;;;;;;7011903;28;20565;-76
2023/08/18 01:46:22;;;;;;;3.57;2.07;;;27.00;69.70;;;;;;6995476;28;20513;-77
2023/08/18 01:49:44;;;;;;;3.78;1.92;;;26.90;69.70;;;;;;6994959;28;20957;-77
2023/08/18 01:53:07;;;;;;;3.55;1.88;;;26.90;69.70;;;;;;6996344;28;20032;-77
2023/08/18 01:56:29;;;;;;;3.50;1.88;;;26.90;69.70;;;;;;6995433;28;20041;-77
2023/08/18 01:59:53;;;;;;;3.70;1.90;;;26.90;69.70;;;;;;6995385;28;20745;-77
2023/08/18 02:03:16;;;;;;;3.42;1.90;;;26.90;69.70;;;;;;6993654;28;20108;-74
2023/08/18 02:06:38;;;;;;;3.10;1.50;;;26.90;69.70;;;;;;6994737;28;20399;-75
2023/08/18 02:10:01;;;;;;;3.58;1.85;;;26.90;69.70;;;;;;6995848;28;20093;-76
2023/08/18 02:15:27;;;;;;;3.25;1.67;;;26.90;69.10;;;;;;7074744;27;20725;-76
2023/08/18 02:21:38;;;;;;;3.65;2.03;;;26.90;69.10;;;;;;7018331;28;20721;-76
2023/08/18 02:25:00;;;;;;;3.33;1.98;;;26.90;69.70;;;;;;6990542;28;20646;-76
2023/08/18 02:28:22;;;;;;;3.33;1.75;;;26.90;69.70;;;;;;6973326;28;20079;-77
2023/08/18 02:31:45;;;;;;;3.13;1.75;;;26.90;69.70;;;;;;6990873;28;20076;-77
2023/08/18 02:35:08;;;;;;;3.50;1.95;;;26.90;69.60;;;;;;6972473;28;20080;-77
2023/08/18 02:38:34;;;;;;;3.65;1.88;;;26.90;69.60;;;;;;6972829;28;20510;-77
2023/08/18 02:41:57;;;;;;;3.70;2.10;;;26.90;69.60;;;;;;6972374;28;20502;-77
2023/08/18 02:45:19;;;;;;;3.53;1.70;;;26.90;69.50;;;;;;6989363;28;20467;-76
2023/08/18 02:49:34;;;;;;;3.78;2.20;;;26.90;69.00;;;;;;7074527;27;21098;-77
2023/08/18 02:53:00;;;;;;;3.37;1.87;;;26.90;69.50;;;;;;7046981;27;20056;-77
2023/08/18 02:56:23;;;;;;;3.45;1.95;;;26.90;69.50;;;;;;7016703;28;20510;-78
2023/08/18 02:59:45;;;;;;;4.07;1.98;;;26.90;69.50;;;;;;7017781;28;20036;-78
2023/08/18 03:03:07;;;;;;;3.38;1.98;;;26.90;69.50;;;;;;7017855;28;20487;-76
2023/08/18 03:06:31;;;;;;;3.58;2.22;;;26.90;69.50;;;;;;7017865;28;20063;-77
2023/08/18 03:09:54;;;;;;;4.05;2.20;;;26.90;69.40;;;;;;7017768;28;20503;-77
2023/08/18 03:13:16;;;;;;;3.60;2.08;;;26.90;69.40;;;;;;7033203;28;20171;-79
2023/08/18 03:16:39;;;;;;;3.88;2.17;;;26.90;70.00;;;;;;7017350;28;20395;-75
2023/08/18 03:20:04;;;;;;;3.42;1.75;;;26.90;69.40;;;;;;7016402;28;20048;-77
2023/08/18 03:23:29;;;;;;;3.42;1.88;;;26.90;69.40;;;;;;7017759;28;20090;-76
2023/08/18 03:26:52;;;;;;;;;;;26.90;69.40;;;;;;7033295;28;20052;-76
2023/08/18 03:30:16;;;;;;;3.40;1.80;;;26.90;69.40;;;;;;7016048;28;19927;-74
2023/08/18 03:33:39;;;;;;;3.08;1.77;;;26.90;69.30;;;;;;7017221;28;20040;-76
2023/08/18 03:37:04;;;;;;;3.20;1.70;;;26.90;69.40;;;;;;7017126;28;20036;-76
2023/08/18 03:40:28;;;;;;;3.20;1.70;;;26.90;69.40;;;;;;7017235;28;20040;-78
2023/08/18 03:43:51;;;;;;;5.83;2.80;;;26.80;69.30;;;;;;7017167;28;20461;-79
2023/08/18 03:47:13;;;;;;;7.35;3.58;;;26.80;68.30;;;;;;7015434;28;20591;-77
2023/08/18 03:50:39;;;;;;;6.25;4.40;;;26.80;66.30;;;;;;7035387;28;20041;-83
2023/08/18 03:54:03;;;;;;;5.43;4.10;;;26.80;65.10;;;;;;7024189;28;20418;-82
2023/08/18 03:57:27;;;;;;;6.30;4.97;;;26.80;63.50;;;;;;7021644;28;20139;-77
2023/08/18 04:00:50;;;;;;;7.28;5.68;;;26.70;61.10;;;;;;6980267;28;20111;-79
2023/08/18 04:04:13;;;;;;;7.15;4.60;;;26.50;59.30;;;;;;6985379;28;20573;-79
2023/08/18 04:07:35;;;;;;;9.40;5.15;;;26.40;58.90;;;;;;6995943;28;20049;-80
2023/08/18 04:10:58;;;;;;;7.30;4.93;;;26.20;58.70;;;;;;7009337;28;20055;-79
2023/08/18 04:14:21;;;;;;;7.78;5.45;;;25.90;58.30;;;;;;7005557;28;20048;-82
2023/08/18 04:17:44;;;;;;;7.57;4.57;;;25.70;58.30;;;;;;6994799;28;20128;-80
2023/08/18 04:21:06;;;;;;;10.25;5.35;;;25.50;58.20;;;;;;6991459;28;20043;-80
2023/08/18 04:24:30;;;;;;;8.30;5.35;;;25.30;58.50;;;;;;7004874;28;20503;-81
2023/08/18 04:27:54;;;;;;;6.35;4.90;;;25.10;58.60;;;;;;6990841;28;20052;-78
2023/08/18 04:31:18;;;;;;;6.07;4.95;;;25.00;58.70;;;;;;7009655;28;20510;-79
2023/08/18 04:34:46;;;;;;;7.10;5.75;;;24.80;59.00;;;;;;6986344;28;20048;-80
2023/08/18 04:38:12;;;;;;;6.45;4.80;;;24.70;59.20;;;;;;6989665;28;20101;-82
2023/08/18 04:41:35;;;;;;;5.88;4.70;;;24.50;59.40;;;;;;7008946;28;20071;-80
2023/08/18 04:44:59;;;;;;;9.23;4.85;;;24.50;59.60;;;;;;6984445;28;20400;-80
2023/08/18 04:48:25;;;;;;;7.15;5.32;;;24.40;59.80;;;;;;6988136;28;20105;-80
2023/08/18 04:51:48;;;;;;;6.73;5.20;;;24.30;59.90;;;;;;7000259;28;20040;-77
2023/08/18 04:55:10;;;;;;;8.60;5.63;;;24.20;60.00;;;;;;6984359;28;20048;-78
2023/08/18 04:58:33;;;;;;;17.13;5.53;;;24.10;60.00;;;;;;6996706;28;20063;-78
2023/08/18 05:01:56;;;;;;;7.82;5.35;;;24.10;60.50;;;;;;7012188;28;20487;-78
2023/08/18 05:05:21;;;;;;;7.63;4.75;;;24.00;60.50;;;;;;6995406;28;20045;-77
2023/08/18 05:08:44;;;;;;;6.05;4.80;;;23.90;60.60;;;;;;6978519;28;20044;-78
2023/08/18 05:12:08;;;;;;;6.93;5.35;;;23.90;60.70;;;;;;6994083;28;20052;-79
2023/08/18 05:15:30;;;;;;;6.53;5.00;;;23.90;60.80;;;;;;6994269;28;20045;-79
2023/08/18 05:18:53;;;;;;;7.78;5.65;;;23.80;60.90;;;;;;6996325;28;20029;-80
2023/08/18 05:22:16;;;;;;;5.80;4.40;;;23.80;61.10;;;;;;6991374;28;20094;-79
2023/08/18 05:25:40;;;;;;;6.88;5.00;;;23.70;61.20;;;;;;6980138;28;20033;-80
2023/08/18 05:29:03;;;;;;;7.75;5.32;;;23.70;61.40;;;;;;6981269;28;20066;-80
2023/08/18 05:32:25;;;;;;;7.40;5.10;;;23.70;61.70;;;;;;6994723;28;20545;-80
2023/08/18 05:35:48;;;;;;;6.75;5.43;;;23.70;62.00;;;;;;6997338;28;20059;-80
2023/08/18 05:39:13;;;;;;;8.65;5.63;;;23.70;62.10;;;;;;6995473;28;20051;-82
2023/08/18 05:42:36;;;;;;;7.68;5.10;;;23.70;62.30;;;;;;6993572;28;20075;-83
2023/08/18 05:45:59;;;;;;;7.53;5.85;;;23.70;62.50;;;;;;6995429;28;20828;-82
2023/08/18 05:49:23;;;;;;;8.48;6.07;;;23.70;62.50;;;;;;6993389;28;20426;-80
2023/08/18 05:52:46;;;;;;;8.25;5.88;;;23.70;62.40;;;;;;7007753;28;20381;-81
2023/08/18 05:56:10;;;;;;;7.78;5.85;;;23.70;62.40;;;;;;6994105;28;20182;-78
2023/08/18 05:59:33;;;;;;;6.57;5.45;;;23.70;62.50;;;;;;6993365;28;20033;-79
2023/08/18 06:02:56;;;;;;;6.72;5.53;;;23.70;62.70;;;;;;6992190;28;20126;-79
2023/08/18 06:06:18;;;;;;;6.45;4.65;;;23.80;63.00;;;;;;6993782;28;20028;-76
2023/08/18 06:09:41;;;;;;;6.93;5.10;;;23.80;63.30;;;;;;6993452;28;20134;-79
2023/08/18 06:13:06;;;;;;;7.47;5.80;;;23.90;63.60;;;;;;6993143;28;20665;-82
2023/08/18 06:18:09;;;;;;;6.95;5.05;;;24.00;63.10;;;;;;7017270;27;20717;-77
2023/08/18 06:21:31;;;;;;;6.88;5.22;;;24.10;63.90;;;;;;6969353;28;20056;-75
2023/08/18 06:28:02;;;;;;;7.85;5.45;;;24.20;63.40;;;;;;7074187;27;21202;-77
2023/08/18 06:32:07;;;;;;;6.93;4.60;;;24.30;63.40;;;;;;7074289;27;20750;-77
2023/08/18 06:35:29;;;;;;;6.20;4.45;;;24.30;64.00;;;;;;7062262;27;20044;-75
2023/08/18 06:38:52;;;;;;;6.32;4.95;;;24.50;64.10;;;;;;7050439;27;20150;-76
2023/08/18 06:42:14;;;;;;;6.15;4.72;;;24.50;64.10;;;;;;7039519;27;20043;-77
2023/08/18 06:45:37;;;;;;;6.53;5.07;;;24.60;64.20;;;;;;7072899;27;20051;-75
2023/08/18 06:49:02;;;;;;;5.97;4.70;;;24.60;64.10;;;;;;7072943;27;20494;-75
2023/08/18 06:52:24;;;;;;;;;;;24.70;64.20;;;;;;7074890;27;20036;-77
2023/08/18 06:55:46;;;;;;;5.50;4.18;;;24.80;64.20;;;;;;7072800;27;20370;-77
2023/08/18 06:59:09;;;;;;;7.95;4.40;;;24.80;64.20;;;;;;7074012;27;20043;-76
2023/08/18 07:02:31;;;;;;;6.07;4.18;;;24.90;64.30;;;;;;7073977;27;20040;-75
2023/08/18 07:05:55;;;;;;;5.47;4.10;;;24.90;64.30;;;;;;7073964;27;20118;-76
2023/08/18 07:09:18;;;;;;;5.80;4.20;;;25.00;64.30;;;;;;7073906;27;20040;-77
2023/08/18 07:12:40;;;;;;;5.80;4.57;;;25.00;64.30;;;;;;7072081;27;20478;-76
2023/08/18 07:16:03;;;;;;;5.93;4.18;;;25.10;64.30;;;;;;7073955;27;20088;-76
2023/08/18 07:19:25;;;;;;;6.00;4.38;;;25.10;64.30;;;;;;7073646;27;20044;-77
2023/08/18 07:22:49;;;;;;;5.68;4.43;;;25.10;64.30;;;;;;7073323;27;20047;-76
2023/08/18 07:26:11;;;;;;;5.57;3.85;;;25.20;64.30;;;;;;7070963;27;20096;-77
2023/08/18 07:29:34;;;;;;;6.07;4.50;;;25.30;64.40;;;;;;7044805;28;20579;-76
2023/08/18 07:32:58;;;;;;;6.95;4.90;;;25.30;64.40;;;;;;7044695;28;20044;-76
2023/08/18 07:36:23;;;;;;;7.25;4.32;;;25.30;64.40;;;;;;7045069;28;20249;-76
2023/08/18 07:39:48;;;;;;;7.63;5.00;;;25.30;64.40;;;;;;7044902;28;20044;-77
2023/08/18 07:43:11;;;;;;;8.68;4.60;;;25.30;64.40;;;;;;7026850;28;20063;-77
2023/08/18 07:46:34;;;;;;;7.13;4.95;;;25.40;65.00;;;;;;7026053;28;20107;-76
2023/08/18 07:49:58;;;;;;;7.45;5.15;;;25.50;65.10;;;;;;7025802;28;20713;-77
2023/08/18 07:53:21;;;;;;;7.25;4.53;;;25.50;64.50;;;;;;7025737;28;20040;-77
2023/08/18 07:56:45;;;;;;;6.47;4.60;;;25.50;64.50;;;;;;7026022;28;20036;-78
2023/08/18 08:00:16;;;;;;;6.22;4.18;;;25.50;64.50;;;;;;7026023;28;20113;-80
2023/08/18 08:03:43;;;;;;;6.38;4.32;;;25.60;64.50;;;;;;7024296;28;20051;-76
2023/08/18 08:07:07;;;;;;;5.75;4.15;;;25.60;64.50;;;;;;7024208;28;20422;-77
2023/08/18 08:10:30;;;;;;;6.80;4.78;;;25.60;64.60;;;;;;7024863;28;20119;-78
2023/08/18 08:16:58;;;;;;;5.85;4.10;;;25.70;64.20;;;;;;7074854;27;20746;-75
2023/08/18 08:20:21;;;;;;;5.67;3.83;;;25.70;64.70;;;;;;7046510;28;20367;-77
2023/08/18 08:23:43;;;;;;;5.55;4.28;;;25.70;64.70;;;;;;7046304;28;20050;-76
2023/08/18 08:27:06;;;;;;;6.65;4.82;;;25.70;64.80;;;;;;7044698;28;20222;-77
2023/08/18 08:30:54;;;;;;;6.30;4.50;;;25.80;64.30;;;;;;7018585;27;20765;-77
2023/08/18 08:34:16;;;;;;;;;;;25.80;64.90;;;;;;6990811;28;20437;-77
2023/08/18 08:37:41;;;;;;;7.30;5.20;;;25.80;64.80;;;;;;6990324;28;20376;-77
2023/08/18 08:41:03;;;;;;;6.30;5.03;;;25.80;64.90;;;;;;6990255;28;20408;-76
2023/08/18 08:44:26;;;;;;;7.60;4.75;;;25.90;65.00;;;;;;6990008;28;20037;-77
2023/08/18 08:47:52;;;;;;;5.88;4.70;;;25.90;65.10;;;;;;6988750;28;20041;-77
2023/08/18 08:51:16;;;;;;;;;;;25.90;65.10;;;;;;6990671;28;20079;-76
2023/08/18 08:54:46;;;;;;;6.18;5.05;;;25.90;64.90;;;;;;6988352;28;20367;-76
2023/08/18 08:58:11;;;;;;;7.35;5.38;;;25.90;65.10;;;;;;6989261;28;20127;-77
2023/08/18 09:01:33;;;;;;;7.32;5.80;;;26.00;65.20;;;;;;6968442;28;20174;-79
2023/08/18 09:05:00;;;;;;;7.35;5.93;;;26.00;65.30;;;;;;6970339;28;20059;-77
2023/08/18 09:08:23;;;;;;;6.97;5.65;;;26.00;65.40;;;;;;6962496;28;20186;-82
2023/08/18 09:11:46;;;;;;;7.28;5.18;;;26.00;65.40;;;;;;6988059;28;20403;-79
2023/08/18 09:15:09;;;;;;;6.38;5.03;;;26.10;65.50;;;;;;6978786;28;20115;-76
2023/08/18 09:18:34;;;;;;;6.70;4.97;;;26.10;65.60;;;;;;6973453;28;20400;-76
2023/08/18 09:22:01;;;;;;;5.90;5.23;;;26.20;65.60;;;;;;6974930;28;20184;-80
2023/08/18 09:25:24;;;;;;;6.50;5.10;;;26.20;65.60;;;;;;6976680;28;20031;-75
2023/08/18 09:28:47;;;;;;;6.28;4.65;;;26.20;65.50;;;;;;6974434;28;20061;-75
2023/08/18 09:32:11;;;;;;;6.25;5.13;;;26.20;65.50;;;;;;6973421;28;20803;-77
2023/08/18 09:35:34;;;;;;;5.78;4.65;;;26.30;65.60;;;;;;6975774;28;20639;-76
2023/08/18 09:39:04;;;;;;;5.90;4.85;;;26.30;65.70;;;;;;6978332;28;20056;-77
2023/08/18 09:42:26;;;;;;;6.32;4.82;;;26.30;65.60;;;;;;6953326;28;20120;-79
2023/08/18 09:45:49;;;;;;;5.90;4.65;;;26.30;65.70;;;;;;6960446;28;20443;-78
2023/08/18 09:49:13;;;;;;;6.93;4.95;;;26.40;65.70;;;;;;6954483;28;20052;-76
2023/08/18 09:52:47;;;;;;;6.30;5.20;;;26.40;65.70;;;;;;6962197;28;20041;-76
2023/08/18 09:56:14;;;;;;;6.82;4.78;;;26.40;65.70;;;;;;6960108;28;20037;-75
2023/08/18 09:59:42;;;;;;;6.93;5.45;;;26.50;65.80;;;;;;6963876;28;20040;-79
2023/08/18 10:03:08;;;;;;;5.97;4.72;;;26.50;65.80;;;;;;6959115;28;20083;-81
2023/08/18 10:06:31;;;;;;;6.57;5.15;;;26.50;65.80;;;;;;6972162;28;20539;-78
2023/08/18 10:09:55;;;;;;;6.10;4.88;;;26.50;65.80;;;;;;6960242;28;20087;-80
2023/08/18 10:13:20;;;;;;;10.57;5.07;;;26.50;65.80;;;;;;6962999;28;20601;-78
2023/08/18 10:16:45;;;;;;;7.22;5.63;;;26.60;65.90;;;;;;6957606;28;20487;-76
2023/08/18 10:20:15;;;;;;;6.40;5.15;;;26.60;65.80;;;;;;6959446;28;20038;-78
2023/08/18 10:23:47;;;;;;;6.07;5.03;;;26.60;65.80;;;;;;6963276;28;20048;-79
2023/08/18 10:27:14;;;;;;;6.47;5.18;;;26.60;65.80;;;;;;6981199;28;20087;-77
2023/08/18 10:30:41;;;;;;;5.75;4.80;;;26.60;65.80;;;;;;6966417;28;20056;-80
2023/08/18 10:34:04;;;;;;;6.70;4.97;;;26.70;65.90;;;;;;6962427;28;20052;-76
2023/08/18 10:37:28;;;;;;;6.70;5.03;;;26.70;66.00;;;;;;6959867;28;20034;-76
2023/08/18 10:40:53;;;;;;;6.03;4.75;;;26.70;66.00;;;;;;6946416;28;20397;-78
2023/08/18 10:44:25;;;;;;;6.97;4.63;;;26.70;66.00;;;;;;6965154;28;20061;-79
2023/08/18 10:48:03;;;;;;;6.28;5.15;;;26.70;65.90;;;;;;6961979;28;20462;-80
2023/08/18 10:51:26;;;;;;;5.95;4.68;;;26.70;66.00;;;;;;6960799;28;20079;-76
2023/08/18 10:54:48;;;;;;;6.70;5.22;;;26.80;66.10;;;;;;6965829;28;20492;-77
2023/08/18 10:58:11;;;;;;;7.25;4.45;;;26.80;66.10;;;;;;6966852;28;20037;-76
2023/08/18 11:01:34;;;;;;;6.07;4.75;;;26.80;66.00;;;;;;6966102;28;20041;-75
2023/08/18 11:04:58;;;;;;;6.90;4.53;;;26.80;66.00;;;;;;6976535;28;20500;-78
2023/08/18 11:08:21;;;;;;;7.50;4.80;;;26.90;66.00;;;;;;6965493;28;20044;-78
2023/08/18 11:11:43;;;;;;;5.65;4.45;;;26.90;66.00;;;;;;6965860;28;20396;-79
2023/08/18 11:15:08;;;;;;;6.38;4.38;;;26.90;66.50;;;;;;6965846;28;20041;-76
2023/08/18 11:18:30;;;;;;;5.97;4.20;;;26.90;66.00;;;;;;6966326;28;20577;-78
2023/08/18 11:21:54;;;;;;;5.57;4.22;;;26.90;65.90;;;;;;6948980;28;20140;-79
2023/08/18 11:25:17;;;;;;;4.93;3.67;;;26.90;65.90;;;;;;6965892;28;20049;-77
2023/08/18 11:28:40;;;;;;;5.40;4.10;;;27.00;66.00;;;;;;6954036;28;20040;-76
2023/08/18 11:32:02;;;;;;;5.68;4.07;;;27.00;66.50;;;;;;6962009;28;20136;-76
2023/08/18 11:35:29;;;;;;;4.68;3.63;;;27.00;65.90;;;;;;6958106;28;20048;-77
2023/08/18 11:38:53;;;;;;;5.20;4.03;;;27.00;65.80;;;;;;6963157;28;20053;-78
2023/08/18 11:42:15;;;;;;;5.03;3.75;;;27.00;65.80;;;;;;6960270;28;20399;-76
2023/08/18 11:45:38;;;;;;;5.22;3.88;;;27.00;65.80;;;;;;6958812;28;20198;-78
2023/08/18 11:49:02;;;;;;;7.63;4.70;;;27.10;65.80;;;;;;6959150;28;20674;-78
2023/08/18 11:52:25;;;;;;;5.57;3.53;;;27.10;65.80;;;;;;6959837;28;20090;-78
2023/08/18 11:55:49;;;;;;;4.90;3.42;;;27.10;65.80;;;;;;6964421;28;20095;-77
2023/08/18 11:59:20;;;;;;;5.07;4.13;;;27.10;65.70;;;;;;6964988;28;20128;-78
2023/08/18 12:02:44;;;;;;;4.90;3.38;;;27.10;65.70;;;;;;6966353;28;20041;-79
2023/08/18 12:06:08;;;;;;;4.95;4.00;;;27.10;65.70;;;;;;6965521;28;20049;-78
2023/08/18 12:09:30;;;;;;;4.80;3.78;;;27.10;65.70;;;;;;6965949;28;20049;-79
2023/08/18 12:12:56;;;;;;;5.25;3.83;;;27.20;65.80;;;;;;6967128;28;20033;-83
2023/08/18 12:16:20;;;;;;;5.60;4.28;;;27.20;65.70;;;;;;6965838;28;20048;-78
2023/08/18 12:19:42;;;;;;;4.90;3.63;;;27.20;65.80;;;;;;6966708;28;20071;-78
2023/08/18 12:23:05;;;;;;;4.97;3.47;;;27.20;65.70;;;;;;6955758;28;20045;-78
2023/08/18 12:26:29;;;;;;;5.38;4.00;;;27.20;65.70;;;;;;6957969;28;20499;-77
2023/08/18 12:29:54;;;;;;;5.60;4.20;;;27.20;65.80;;;;;;6941086;28;20053;-78
2023/08/18 12:33:16;;;;;;;5.45;4.05;;;27.20;65.80;;;;;;6999801;28;20052;-79
2023/08/18 12:36:39;;;;;;;7.97;4.20;;;27.30;65.90;;;;;;6963532;28;20041;-77
2023/08/18 12:40:01;;;;;;;5.15;4.03;;;27.30;65.80;;;;;;6960188;28;20195;-78
2023/08/18 12:43:24;;;;;;;5.18;4.30;;;27.30;65.90;;;;;;6961213;28;21634;-76
2023/08/18 12:46:48;;;;;;;5.70;4.18;;;27.30;65.90;;;;;;6949203;28;20052;-77
2023/08/18 12:50:12;;;;;;;6.25;4.28;;;27.40;66.00;;;;;;6953635;28;20634;-78
2023/08/18 12:53:35;;;;;;;5.40;4.15;;;27.40;66.10;;;;;;6945506;28;20392;-81
2023/08/18 12:56:57;;;;;;;4.60;3.47;;;27.40;66.10;;;;;;6947120;28;20045;-78
2023/08/18 13:00:20;;;;;;;6.22;3.70;;;27.40;66.00;;;;;;6944236;28;20496;-78
2023/08/18 13:03:44;;;;;;;5.90;3.35;;;27.40;65.90;;;;;;6965571;28;20041;-77
2023/08/18 13:07:06;;;;;;;4.82;3.85;;;27.40;65.90;;;;;;6954202;28;20067;-77
2023/08/18 13:10:29;;;;;;;5.68;4.25;;;27.40;65.90;;;;;;6962252;28;20048;-78
2023/08/18 13:13:51;;;;;;;5.22;4.05;;;27.50;66.10;;;;;;6947961;28;20045;-77
2023/08/18 13:17:15;;;;;;;6.05;3.97;;;27.50;66.00;;;;;;6962622;28;20045;-77
2023/08/18 13:20:39;;;;;;;5.20;3.70;;;27.50;65.90;;;;;;6968880;28;20049;-78
2023/08/18 13:24:02;;;;;;;5.90;3.90;;;27.50;65.80;;;;;;6968725;28;20069;-78
2023/08/18 13:27:25;;;;;;;5.25;3.60;;;27.50;65.70;;;;;;6956910;28;20060;-78
2023/08/18 13:30:48;;;;;;;5.70;3.70;;;27.60;65.70;;;;;;6954608;28;20054;-79
2023/08/18 13:34:11;;;;;;;7.22;3.30;;;27.60;65.70;;;;;;6953251;28;20423;-79
2023/08/18 13:37:34;;;;;;;5.10;3.45;;;27.50;66.10;;;;;;6947323;28;20077;-79
2023/08/18 13:40:57;;;;;;;5.03;3.40;;;27.50;65.50;;;;;;6970159;28;20118;-77
2023/08/18 13:44:20;;;;;;;5.82;3.50;;;27.50;65.50;;;;;;6962419;28;20186;-77
2023/08/18 13:47:42;;;;;;;4.32;3.13;;;27.60;65.50;;;;;;6957837;28;20127;-81
2023/08/18 13:51:05;;;;;;;5.10;3.42;;;27.60;65.50;;;;;;6964819;28;20136;-77
2023/08/18 13:54:28;;;;;;;4.10;2.85;;;27.50;65.50;;;;;;6969766;28;20487;-78
2023/08/18 13:57:51;;;;;;;4.75;3.20;;;27.60;65.70;;;;;;6967548;28;20033;-79
2023/08/18 14:02:47;;;;;;;4.00;2.65;;;27.60;65.10;;;;;;6976514;28;20832;-77
2023/08/18 14:06:09;;;;;;;4.20;2.42;;;27.60;65.60;;;;;;6932114;28;20055;-78
2023/08/18 14:09:33;;;;;;;3.45;2.15;;;27.60;65.60;;;;;;6934077;28;20037;-79
2023/08/18 14:12:55;;;;;;;3.95;2.45;;;27.60;65.70;;;;;;6932766;28;20041;-79
2023/08/18 14:16:18;;;;;;;4.22;2.47;;;27.60;65.70;;;;;;6930082;28;20034;-77
2023/08/18 14:23:19;;;;;;;3.35;1.95;;;27.60;65.70;;;;;;7176960;23;20058;-76
2023/08/18 14:26:41;;;;;;;3.72;2.00;;;27.60;65.60;;;;;;6850800;28;20047;-76
2023/08/18 14:30:04;;;;;;;4.15;1.85;;;27.60;65.60;;;;;;6852576;28;20043;-76
2023/08/18 14:33:27;;;;;;;4.03;2.30;;;27.70;65.70;;;;;;6853583;28;20189;-77
2023/08/18 14:36:49;;;;;;;3.63;1.90;;;27.60;65.70;;;;;;6852627;28;20042;-74
2023/08/18 14:40:13;;;;;;;3.85;2.10;;;27.60;65.70;;;;;;6829068;28;20051;-75
2023/08/18 14:43:58;;;;;;;3.40;1.98;;;27.60;65.10;;;;;;7102793;27;20710;-76
2023/08/18 14:47:20;;;;;;;4.07;2.40;;;27.70;65.80;;;;;;7056087;28;20697;-74
2023/08/18 14:50:43;;;;;;;3.55;1.90;;;27.60;65.80;;;;;;7073299;28;20071;-75
2023/08/18 14:54:07;;;;;;;3.85;1.88;;;27.60;65.70;;;;;;7057005;28;20043;-75
2023/08/18 14:57:29;;;;;;;5.07;2.35;;;27.60;65.70;;;;;;7045901;28;20051;-73
2023/08/18 15:00:54;;;;;;;3.95;2.20;;;27.60;65.70;;;;;;7707117;22;20052;-78
2023/08/18 15:04:16;;;;;;;3.25;2.00;;;27.70;65.80;;;;;;6973586;28;20040;-80
2023/08/18 15:07:39;;;;;;;4.82;2.30;;;27.70;65.70;;;;;;6983662;28;20095;-80
2023/08/18 15:11:03;;;;;;;4.05;2.22;;;27.70;65.70;;;;;;6939908;28;20049;-79
2023/08/18 15:14:26;;;;;;;5.03;1.98;;;27.70;65.70;;;;;;6918103;28;20045;-75
2023/08/18 15:17:51;;;;;;;3.90;2.05;;;27.70;65.70;;;;;;6964959;28;20049;-84
2023/08/18 15:21:13;;;;;;;3.25;1.80;;;27.70;65.70;;;;;;6976282;28;20045;-81
2023/08/18 15:24:36;;;;;;;3.95;1.92;;;27.70;65.70;;;;;;6978632;28;20499;-80
2023/08/18 15:27:59;;;;;;;3.60;1.90;;;27.70;65.60;;;;;;6970856;28;20496;-76
2023/08/18 15:31:21;;;;;;;3.53;2.00;;;27.70;65.60;;;;;;6961315;28;20048;-78
2023/08/18 15:34:45;;;;;;;4.35;2.00;;;27.70;65.60;;;;;;6959279;28;20553;-77
2023/08/18 15:38:08;;;;;;;3.22;1.65;;;27.70;65.60;;;;;;6960335;28;20680;-76
2023/08/18 15:41:36;;;;;;;3.67;2.05;;;27.70;65.50;;;;;;6942196;28;20048;-78
2023/08/18 15:44:59;;;;;;;3.13;1.75;;;27.60;65.40;;;;;;6942460;28;20131;-76
2023/08/18 15:48:21;;;;;;;3.30;1.77;;;27.70;65.40;;;;;;6962081;28;20098;-76
2023/08/18 15:51:47;;;;;;;3.95;1.88;;;27.60;65.30;;;;;;6960401;28;20083;-75
2023/08/18 15:55:09;;;;;;;3.13;1.60;;;27.60;65.30;;;;;;6942225;28;20082;-76
2023/08/18 15:58:32;;;;;;;3.20;1.55;;;27.60;65.30;;;;;;6941423;28;20067;-77
2023/08/18 16:01:55;;;;;;;3.67;1.80;;;27.60;65.30;;;;;;6938989;28;20057;-78
2023/08/18 16:05:19;;;;;;;3.08;1.45;;;27.60;65.30;;;;;;6941842;28;20037;-76
2023/08/18 16:08:42;;;;;;;3.10;1.42;;;27.60;65.30;;;;;;6941582;28;20044;-77
2023/08/18 16:12:06;;;;;;;3.47;1.60;;;27.60;65.30;;;;;;6941519;28;20535;-76
2023/08/18 16:15:28;;;;;;;3.22;1.60;;;27.60;65.40;;;;;;6941523;28;20037;-76
2023/08/18 16:18:51;;;;;;;3.10;1.42;;;27.60;65.40;;;;;;6941200;28;20034;-75
2023/08/18 16:22:14;;;;;;;2.70;1.25;;;27.50;65.30;;;;;;6939865;28;20041;-76
2023/08/18 16:25:38;;;;;;;3.13;1.55;;;27.50;65.30;;;;;;6939930;28;20044;-77
2023/08/18 16:29:01;;;;;;;2.92;1.50;;;27.50;65.30;;;;;;6935911;28;20377;-76
2023/08/18 16:32:23;;;;;;;3.40;1.60;;;27.50;65.40;;;;;;6940867;28;20293;-76
2023/08/18 16:35:47;;;;;;;2.90;1.40;;;27.50;65.40;;;;;;6940646;28;20164;-76
2023/08/18 16:39:10;;;;;;;2.88;1.40;;;27.40;65.30;;;;;;6938593;28;20038;-77
2023/08/18 16:42:35;;;;;;;2.97;1.42;;;27.50;65.40;;;;;;6940500;28;20488;-78
2023/08/18 16:45:57;;;;;;;2.95;1.50;;;27.50;65.50;;;;;;6940467;28;20041;-77
2023/08/18 16:49:20;;;;;;;3.00;1.38;;;27.50;65.50;;;;;;6940640;28;20099;-77
2023/08/18 16:52:42;;;;;;;2.70;1.20;;;27.50;65.50;;;;;;6922635;28;20041;-76
2023/08/18 16:56:06;;;;;;;2.90;1.30;;;27.40;65.40;;;;;;6921780;28;20053;-76
2023/08/18 16:59:32;;;;;;;3.33;1.42;;;27.40;65.40;;;;;;6937678;28;20045;-77
2023/08/18 17:02:55;;;;;;;2.53;1.17;;;27.40;65.40;;;;;;6940248;28;20172;-75
2023/08/18 17:06:19;;;;;;;4.68;1.25;;;27.40;65.50;;;;;;6936470;28;20404;-77
2023/08/18 17:09:41;;;;;;;2.33;1.00;;;27.40;65.50;;;;;;6938970;28;20102;-76
2023/08/18 17:13:05;;;;;;;2.35;1.05;;;27.40;65.50;;;;;;6936671;28;20037;-76
2023/08/18 17:16:29;;;;;;;2.53;1.10;;;27.40;65.50;;;;;;6918957;28;20195;-77
2023/08/18 17:19:51;;;;;;;2.72;1.15;;;27.40;65.50;;;;;;6938750;28;20102;-77
2023/08/18 17:23:16;;;;;;;2.63;1.13;;;27.40;65.50;;;;;;6936810;28;20037;-76
2023/08/18 17:26:39;;;;;;;2.78;1.17;;;27.40;65.50;;;;;;6930071;28;20120;-77
2023/08/18 17:30:02;;;;;;;2.38;0.93;;;27.30;65.50;;;;;;6939409;28;20041;-77
2023/08/18 17:33:26;;;;;;;2.70;1.20;;;27.30;65.50;;;;;;6939868;28;20033;-77
2023/08/18 17:36:49;;;;;;;2.80;1.10;;;27.30;65.40;;;;;;6939775;28;20041;-77
2023/08/18 17:40:12;;;;;;;3.00;1.20;;;27.30;65.50;;;;;;6944762;28;20091;-77
2023/08/18 17:43:34;;;;;;;2.53;1.17;;;27.30;65.50;;;;;;6966995;28;20144;-77
2023/08/18 17:46:59;;;;;;;2.35;1.00;;;27.30;65.60;;;;;;6936549;28;20098;-75
2023/08/18 17:50:23;;;;;;;2.88;1.30;;;27.30;65.60;;;;;;6939113;28;20502;-77
2023/08/18 17:53:45;;;;;;;2.65;1.23;;;27.30;65.60;;;;;;6920728;28;20507;-76
2023/08/18 17:57:09;;;;;;;3.55;1.05;;;27.30;65.70;;;;;;6939443;28;20553;-77
2023/08/18 18:00:32;;;;;;;2.87;1.10;;;27.30;65.70;;;;;;6920677;28;20396;-77